Time;durP1;ratioP1;P1;durP2;ratioP2;P2;SDS_P1;SDS_P2;PMS_P1;PMS_P2;Temp;Humidity;BMP_temperature;BMP_pressure;BME280_temperature;BME280_humidity;BME280_pressure;Samples;Min_cycle;Max_cycle;Signal;HPM_P1;HPM_P2
2023/10/06 00:01:42;;;;;;;10.25;5.00;;;13.90;99.90;;;;;;5067296;28;20056;-67
2023/10/06 00:04:13;;;;;;;14.05;4.82;;;13.90;99.90;;;;;;5060515;28;20047;-67
2023/10/06 00:06:42;;;;;;;15.63;5.53;;;13.90;99.90;;;;;;5062270;28;20046;-67
2023/10/06 00:09:09;;;;;;;11.52;5.35;;;13.90;99.90;;;;;;5072788;28;20411;-67
2023/10/06 00:11:37;;;;;;;12.10;5.40;;;13.80;99.90;;;;;;5069341;28;20132;-67
2023/10/06 00:14:07;;;;;;;14.43;5.70;;;13.80;99.90;;;;;;5070425;28;20041;-67
2023/10/06 00:16:39;;;;;;;13.13;6.28;;;13.80;99.90;;;;;;5070737;28;20459;-67
2023/10/06 00:19:31;;;;;;;14.65;6.13;;;13.80;99.90;;;;;;5066537;28;20119;-67
2023/10/06 00:24:31;;;;;;;12.05;5.82;;;13.80;99.90;;;;;;5067830;28;20123;-67
2023/10/06 00:26:59;;;;;;;13.63;6.93;;;13.80;99.90;;;;;;5050652;28;20037;-67
2023/10/06 00:29:27;;;;;;;13.93;6.68;;;13.80;99.90;;;;;;5060458;28;20120;-67
2023/10/06 00:31:53;;;;;;;13.13;6.30;;;13.80;99.90;;;;;;5062983;28;20090;-67
2023/10/06 00:34:29;;;;;;;17.40;7.55;;;13.80;99.90;;;;;;5061048;28;20554;-67
2023/10/06 00:36:56;;;;;;;13.88;6.85;;;13.80;99.90;;;;;;5062352;28;20040;-67
2023/10/06 00:39:25;;;;;;;14.90;6.70;;;13.80;99.90;;;;;;5061170;28;20051;-67
2023/10/06 00:42:04;;;;;;;11.07;7.20;;;13.80;99.90;;;;;;5062210;28;20044;-67
2023/10/06 00:44:30;;;;;;;14.57;6.55;;;13.80;99.90;;;;;;5060041;28;20418;-67
2023/10/06 00:46:58;;;;;;;12.60;7.10;;;13.80;99.90;;;;;;5069712;28;20036;-67
2023/10/06 00:49:27;;;;;;;15.65;7.07;;;13.80;99.90;;;;;;5068916;28;20036;-67
2023/10/06 00:51:53;;;;;;;11.80;6.60;;;13.80;99.90;;;;;;5062117;28;20407;-68
2023/10/06 00:54:20;;;;;;;12.52;6.38;;;13.80;99.90;;;;;;5065360;28;20043;-67
2023/10/06 00:56:46;;;;;;;14.88;6.68;;;13.80;99.90;;;;;;5069473;28;20036;-67
2023/10/06 00:59:12;;;;;;;17.30;7.45;;;13.80;99.90;;;;;;5055889;28;20059;-67
2023/10/06 01:01:39;;;;;;;14.52;7.18;;;13.80;99.90;;;;;;5050893;28;20480;-67
2023/10/06 01:04:08;;;;;;;11.93;6.65;;;13.90;99.90;;;;;;5069424;28;20124;-67
2023/10/06 01:06:36;;;;;;;14.85;6.75;;;13.90;99.90;;;;;;5064823;28;20068;-67
2023/10/06 01:09:13;;;;;;;14.30;6.70;;;13.90;99.90;;;;;;5063506;28;20105;-67
2023/10/06 01:11:50;;;;;;;17.73;6.85;;;13.90;99.90;;;;;;5069294;28;20487;-67
2023/10/06 01:14:21;;;;;;;11.77;7.32;;;13.80;99.90;;;;;;5058525;28;20052;-67
2023/10/06 01:16:51;;;;;;;19.48;7.65;;;13.80;99.90;;;;;;5052817;28;20395;-67
2023/10/06 01:21:47;;;;;;;18.00;7.22;;;13.80;99.90;;;;;;5062575;28;20032;-67
2023/10/06 01:24:15;;;;;;;12.20;6.60;;;13.80;99.90;;;;;;5069779;28;20056;-68
2023/10/06 01:26:41;;;;;;;13.63;7.22;;;13.80;99.90;;;;;;5054735;28;20041;-68
2023/10/06 01:29:16;;;;;;;15.73;7.60;;;13.80;99.90;;;;;;5065605;28;20048;-67
2023/10/06 01:31:41;;;;;;;13.40;7.00;;;13.80;99.90;;;;;;5062327;28;20036;-68
2023/10/06 01:34:08;;;;;;;18.83;7.43;;;13.80;99.90;;;;;;5069721;28;20055;-67
2023/10/06 01:36:38;;;;;;;14.75;7.55;;;13.80;99.90;;;;;;5058192;28;20116;-68
2023/10/06 01:39:05;;;;;;;14.85;7.15;;;13.80;99.90;;;;;;5055057;28;20350;-67
2023/10/06 01:41:36;;;;;;;14.57;7.20;;;13.80;99.90;;;;;;5061993;28;20068;-66
2023/10/06 01:44:12;;;;;;;12.90;7.60;;;13.70;99.90;;;;;;5058151;28;20117;-67
2023/10/06 01:46:38;;;;;;;14.93;7.38;;;13.80;99.90;;;;;;5070024;28;20323;-67
2023/10/06 01:49:05;;;;;;;12.55;7.00;;;13.70;99.90;;;;;;5060063;28;20482;-67
2023/10/06 01:51:35;;;;;;;12.73;7.00;;;13.70;99.90;;;;;;5064856;28;20062;-67
2023/10/06 01:54:11;;;;;;;16.95;7.53;;;13.70;99.90;;;;;;5067702;28;20040;-67
2023/10/06 01:56:42;;;;;;;16.10;7.65;;;13.70;99.90;;;;;;5069448;28;20040;-67
2023/10/06 01:59:11;;;;;;;17.38;7.60;;;13.70;99.90;;;;;;5066634;28;20503;-66
2023/10/06 02:01:40;;;;;;;16.55;7.50;;;13.70;99.90;;;;;;5060904;28;20040;-67
2023/10/06 02:04:10;;;;;;;15.27;7.38;;;13.70;99.90;;;;;;5059328;28;20115;-67
2023/10/06 02:06:35;;;;;;;16.55;7.72;;;13.70;99.90;;;;;;5069686;28;20043;-66
2023/10/06 02:09:05;;;;;;;14.60;7.00;;;13.70;99.90;;;;;;5069650;28;20040;-67
2023/10/06 02:11:32;;;;;;;13.55;7.53;;;13.70;99.90;;;;;;5065868;28;20036;-67
2023/10/06 02:13:57;;;;;;;15.05;7.65;;;13.70;99.90;;;;;;5055381;28;20115;-66
2023/10/06 02:16:26;;;;;;;16.92;7.63;;;13.70;99.90;;;;;;5068384;28;20119;-67
2023/10/06 02:18:54;;;;;;;15.52;7.32;;;13.80;99.90;;;;;;5058297;28;20044;-67
2023/10/06 02:21:24;;;;;;;15.50;7.38;;;13.70;99.90;;;;;;5057729;28;20083;-67
2023/10/06 02:23:53;;;;;;;16.83;7.50;;;13.70;99.90;;;;;;5057685;28;20044;-67
2023/10/06 02:26:18;;;;;;;15.25;7.30;;;13.80;99.90;;;;;;5063739;28;20029;-67
2023/10/06 02:28:48;;;;;;;14.35;6.97;;;13.70;99.90;;;;;;5067445;28;20131;-67
2023/10/06 02:31:15;;;;;;;14.75;7.30;;;13.70;99.90;;;;;;5072486;28;20037;-67
2023/10/06 02:33:41;;;;;;;17.90;7.68;;;13.70;99.90;;;;;;5068903;28;20048;-67
2023/10/06 02:36:17;;;;;;;17.60;7.72;;;13.70;99.90;;;;;;5063767;28;20406;-67
2023/10/06 02:38:46;;;;;;;13.88;6.95;;;13.70;99.90;;;;;;5065860;28;20033;-67
2023/10/06 02:41:19;;;;;;;14.75;7.15;;;13.70;99.90;;;;;;5070344;28;20036;-67
2023/10/06 02:43:49;;;;;;;16.70;8.00;;;13.70;99.90;;;;;;5071273;28;20037;-67
2023/10/06 02:46:16;;;;;;;14.50;7.60;;;13.70;99.90;;;;;;5072830;28;20033;-67
2023/10/06 02:48:50;;;;;;;15.50;7.63;;;13.70;99.90;;;;;;5072301;28;20435;-67
2023/10/06 02:51:32;;;;;;;20.52;8.00;;;13.70;99.90;;;;;;5069069;28;20094;-67
2023/10/06 02:56:46;;;;;;;16.23;7.25;;;13.70;99.90;;;;;;5060852;28;20467;-67
2023/10/06 02:59:21;;;;;;;15.02;8.15;;;13.80;99.90;;;;;;5073240;28;20041;-67
2023/10/06 03:02:00;;;;;;;17.60;7.30;;;13.70;99.90;;;;;;5060490;28;20105;-67
2023/10/06 03:04:27;;;;;;;15.52;7.80;;;13.70;99.90;;;;;;5072649;28;21202;-67
2023/10/06 03:06:59;;;;;;;14.60;8.15;;;13.70;99.90;;;;;;5067534;28;20041;-67
2023/10/06 03:09:38;;;;;;;19.83;8.30;;;13.70;99.90;;;;;;5051870;28;20040;-67
2023/10/06 03:14:53;;;;;;;18.35;7.78;;;13.70;99.90;;;;;;5051560;28;20041;-68
2023/10/06 03:17:20;;;;;;;20.10;8.10;;;13.70;99.90;;;;;;5063896;28;20029;-67
2023/10/06 03:20:01;;;;;;;15.07;7.30;;;13.70;99.90;;;;;;5059584;28;20355;-67
2023/10/06 03:22:28;;;;;;;15.32;6.97;;;13.60;99.90;;;;;;5064308;28;20040;-66
2023/10/06 03:24:58;;;;;;;14.43;7.13;;;13.60;99.90;;;;;;5062399;28;20044;-67
2023/10/06 03:27:23;;;;;;;16.27;7.57;;;13.60;99.90;;;;;;5050383;28;20045;-67
2023/10/06 03:29:55;;;;;;;13.80;7.43;;;13.60;99.90;;;;;;5056450;28;20093;-67
2023/10/06 03:32:32;;;;;;;16.13;7.55;;;13.50;99.90;;;;;;5064096;28;20115;-67
2023/10/06 03:35:48;;;;;;;15.18;7.50;;;13.50;99.90;;;;;;5060044;28;20048;-67
2023/10/06 03:37:53;;;;;;;13.52;7.15;;;13.40;99.90;;;;;;5051612;28;20408;-66
2023/10/06 03:40:30;;;;;;;15.13;7.65;;;13.40;99.90;;;;;;5060397;28;20196;-67
2023/10/06 03:42:58;;;;;;;19.08;8.38;;;13.40;99.90;;;;;;5061405;28;20561;-67
2023/10/06 03:45:26;;;;;;;17.02;7.90;;;13.40;99.90;;;;;;5071141;28;20040;-67
2023/10/06 03:48:11;;;;;;;15.20;7.32;;;13.30;99.90;;;;;;5068479;28;20507;-67
2023/10/06 03:50:40;;;;;;;17.85;7.93;;;13.30;99.90;;;;;;5066502;28;21414;-67
2023/10/06 03:53:11;;;;;;;19.50;7.07;;;13.30;99.90;;;;;;5063812;28;20063;-67
2023/10/06 03:55:40;;;;;;;13.38;7.13;;;13.30;99.90;;;;;;5067430;28;20481;-67
2023/10/06 03:58:07;;;;;;;19.50;7.18;;;13.30;99.90;;;;;;5060245;28;20091;-67
2023/10/06 04:00:38;;;;;;;15.40;7.45;;;13.30;99.90;;;;;;5054535;28;20120;-67
2023/10/06 04:03:14;;;;;;;17.45;7.45;;;13.30;99.90;;;;;;5064945;28;20040;-67
2023/10/06 04:05:50;;;;;;;17.17;7.18;;;13.20;99.90;;;;;;5056447;28;20041;-67
2023/10/06 04:08:23;;;;;;;11.60;6.60;;;13.20;99.90;;;;;;5070070;28;20044;-67
2023/10/06 04:10:54;;;;;;;18.25;7.50;;;13.20;99.90;;;;;;5052372;28;20090;-66
2023/10/06 04:13:20;;;;;;;15.32;6.90;;;13.20;99.90;;;;;;5067974;28;20039;-67
2023/10/06 04:15:50;;;;;;;18.20;7.10;;;13.20;99.90;;;;;;5060372;28;20033;-67
2023/10/06 04:18:18;;;;;;;17.20;7.15;;;13.20;99.90;;;;;;5060128;28;20146;-67
2023/10/06 04:20:45;;;;;;;17.55;7.38;;;13.10;99.90;;;;;;5051063;28;20045;-67
2023/10/06 04:23:12;;;;;;;14.60;6.63;;;13.10;99.90;;;;;;5058415;28;20115;-67
2023/10/06 04:25:41;;;;;;;16.55;6.85;;;13.10;99.90;;;;;;5064864;28;20044;-67
2023/10/06 04:28:14;;;;;;;14.07;6.57;;;13.10;99.90;;;;;;5067516;28;20516;-67
2023/10/06 04:30:44;;;;;;;19.50;6.80;;;13.10;99.90;;;;;;5059729;28;20040;-67
2023/10/06 04:33:11;;;;;;;14.07;6.85;;;13.10;99.90;;;;;;5060262;28;20029;-67
2023/10/06 04:35:40;;;;;;;13.68;6.90;;;13.10;99.90;;;;;;5067545;28;20597;-67
2023/10/06 04:38:12;;;;;;;16.75;6.70;;;13.10;99.90;;;;;;5063742;28;20487;-66
2023/10/06 04:40:40;;;;;;;16.20;7.13;;;13.10;99.90;;;;;;5058882;28;20040;-67
2023/10/06 04:43:06;;;;;;;15.98;7.05;;;13.10;99.90;;;;;;5060301;28;20048;-67
2023/10/06 04:45:32;;;;;;;16.95;6.35;;;13.10;99.90;;;;;;5069036;28;20032;-67
2023/10/06 04:48:02;;;;;;;13.25;6.85;;;13.10;99.90;;;;;;5070609;28;20604;-67
2023/10/06 04:50:29;;;;;;;14.38;6.78;;;13.20;99.90;;;;;;5061189;28;20041;-67
2023/10/06 04:52:55;;;;;;;18.35;7.15;;;13.10;99.90;;;;;;5065606;28;20491;-67
2023/10/06 04:55:21;;;;;;;16.35;6.95;;;13.10;99.90;;;;;;5067235;28;20047;-67
2023/10/06 04:57:47;;;;;;;15.60;7.22;;;13.10;99.90;;;;;;5057839;28;20032;-67
2023/10/06 05:00:15;;;;;;;16.70;6.90;;;13.10;99.90;;;;;;5066534;28;20262;-67
2023/10/06 05:02:43;;;;;;;14.75;6.43;;;13.10;99.90;;;;;;5065965;28;20116;-67
2023/10/06 05:05:12;;;;;;;15.13;6.88;;;13.10;99.90;;;;;;5059394;28;20527;-67
2023/10/06 05:07:39;;;;;;;15.75;6.82;;;13.10;99.90;;;;;;5058813;28;20095;-67
2023/10/06 05:10:08;;;;;;;15.57;6.25;;;13.10;99.90;;;;;;5058992;28;20128;-67
2023/10/06 05:12:37;;;;;;;16.38;6.95;;;13.10;99.90;;;;;;5059582;28;20024;-67
2023/10/06 05:15:07;;;;;;;14.32;6.47;;;13.10;99.90;;;;;;5060059;28;20032;-67
2023/10/06 05:17:34;;;;;;;13.60;6.32;;;13.20;99.90;;;;;;5075995;28;20098;-68
2023/10/06 05:20:00;;;;;;;15.88;6.18;;;13.20;99.90;;;;;;5072545;28;20559;-68
2023/10/06 05:22:26;;;;;;;18.02;6.60;;;13.20;99.90;;;;;;5061884;28;20041;-68
2023/10/06 05:24:51;;;;;;;15.48;6.95;;;13.20;99.90;;;;;;5056343;28;20036;-67
2023/10/06 05:27:19;;;;;;;17.38;6.45;;;13.20;99.90;;;;;;5061407;28;20101;-68
2023/10/06 05:29:46;;;;;;;15.15;6.38;;;13.30;99.90;;;;;;5073129;28;20403;-68
2023/10/06 05:32:13;;;;;;;15.45;6.93;;;13.30;99.90;;;;;;5060901;28;20051;-67
2023/10/06 05:34:40;;;;;;;14.60;6.72;;;13.30;99.90;;;;;;5067322;28;20037;-67
2023/10/06 05:37:08;;;;;;;13.27;6.80;;;13.30;99.90;;;;;;5067947;28;20116;-67
2023/10/06 05:39:34;;;;;;;14.52;6.47;;;13.30;99.90;;;;;;5069437;28;20052;-67
2023/10/06 05:42:02;;;;;;;15.18;7.18;;;13.40;99.90;;;;;;5055989;28;20032;-67
2023/10/06 05:44:28;;;;;;;12.95;6.82;;;13.30;99.90;;;;;;5062753;28;20037;-67
2023/10/06 05:46:54;;;;;;;13.45;6.80;;;13.40;99.90;;;;;;5060807;28;20044;-67
2023/10/06 05:49:23;;;;;;;21.50;7.53;;;13.40;99.90;;;;;;5066558;28;20114;-67
2023/10/06 05:51:49;;;;;;;12.80;6.38;;;13.40;99.90;;;;;;5062650;28;20036;-68
2023/10/06 05:54:21;;;;;;;18.85;7.47;;;13.50;99.90;;;;;;5062597;28;20107;-67
2023/10/06 05:56:53;;;;;;;;;;;13.50;99.90;;;;;;5055472;28;20526;-67
2023/10/06 05:59:22;;;;;;;16.98;6.47;;;13.50;99.90;;;;;;5064232;28;19936;-67
2023/10/06 06:02:09;;;;;;;15.63;6.75;;;13.60;99.90;;;;;;5063487;28;20502;-67
2023/10/06 06:04:37;;;;;;;16.08;6.85;;;13.70;99.90;;;;;;5065878;28;20055;-68
2023/10/06 06:07:03;;;;;;;14.45;6.75;;;13.70;99.90;;;;;;5067735;28;20040;-67
2023/10/06 06:09:33;;;;;;;13.60;6.95;;;13.80;99.90;;;;;;5059740;28;20040;-67
2023/10/06 06:12:00;;;;;;;18.02;6.68;;;13.80;99.90;;;;;;5071702;28;20045;-67
2023/10/06 06:14:25;;;;;;;14.40;7.00;;;13.90;99.90;;;;;;5061558;28;20122;-67
2023/10/06 06:16:52;;;;;;;15.82;5.85;;;13.90;99.90;;;;;;5065758;28;20602;-68
2023/10/06 06:19:18;;;;;;;16.27;6.88;;;14.00;99.90;;;;;;5066480;28;20043;-67
2023/10/06 06:21:45;;;;;;;14.77;6.70;;;13.90;99.90;;;;;;5063144;28;20115;-68
2023/10/06 06:24:10;;;;;;;14.75;6.38;;;14.00;99.90;;;;;;5061731;28;20037;-68
2023/10/06 06:26:37;;;;;;;17.75;6.38;;;14.00;99.90;;;;;;5067542;28;20035;-67
2023/10/06 06:29:08;;;;;;;16.85;6.63;;;14.00;99.90;;;;;;5061958;28;20044;-67
2023/10/06 06:31:34;;;;;;;14.90;6.10;;;14.10;99.90;;;;;;5071246;28;20039;-68
2023/10/06 06:34:04;;;;;;;18.15;6.20;;;14.10;99.90;;;;;;5072766;28;20041;-68
2023/10/06 06:36:31;;;;;;;11.25;5.47;;;14.10;99.90;;;;;;5060519;28;20033;-67
2023/10/06 06:38:58;;;;;;;13.05;6.30;;;14.20;99.90;;;;;;5069412;28;20049;-67
2023/10/06 06:41:24;;;;;;;14.40;5.70;;;14.20;99.90;;;;;;5060062;28;20103;-67
2023/10/06 06:43:54;;;;;;;18.02;6.13;;;14.20;99.90;;;;;;5061706;28;20105;-67
2023/10/06 06:46:20;;;;;;;12.93;6.15;;;14.30;99.90;;;;;;5061935;28;20036;-68
2023/10/06 06:48:46;;;;;;;15.18;6.60;;;14.30;99.90;;;;;;5066852;28;20394;-67
2023/10/06 06:51:12;;;;;;;13.32;5.47;;;14.30;99.90;;;;;;5063522;28;20044;-67
2023/10/06 06:53:39;;;;;;;15.07;5.72;;;14.30;99.90;;;;;;5064395;28;20526;-68
2023/10/06 06:56:05;;;;;;;15.27;5.95;;;14.30;99.90;;;;;;5068732;28;20484;-67
2023/10/06 06:58:32;;;;;;;15.43;5.50;;;14.30;99.90;;;;;;5069683;28;20503;-67
2023/10/06 07:00:58;;;;;;;14.80;5.70;;;14.40;99.90;;;;;;5065473;28;20056;-67
2023/10/06 07:03:24;;;;;;;12.60;5.80;;;14.40;99.90;;;;;;5080622;28;20044;-67
2023/10/06 07:05:50;;;;;;;12.93;5.70;;;14.40;99.90;;;;;;5061425;28;20391;-67
2023/10/06 07:08:16;;;;;;;20.40;5.95;;;14.50;99.90;;;;;;5061873;28;20531;-67
2023/10/06 07:11:03;;;;;;;14.30;5.53;;;14.50;99.90;;;;;;5068949;28;20033;-67
2023/10/06 07:13:28;;;;;;;17.88;6.32;;;14.50;99.90;;;;;;5062861;28;20592;-67
2023/10/06 07:15:54;;;;;;;17.75;5.53;;;14.40;99.90;;;;;;5065759;28;20082;-67
2023/10/06 07:18:21;;;;;;;11.35;5.32;;;14.40;99.90;;;;;;5067982;28;20059;-67
2023/10/06 07:20:48;;;;;;;17.13;6.40;;;14.40;99.90;;;;;;5067495;28;20622;-68
2023/10/06 07:23:13;;;;;;;11.75;5.28;;;14.40;99.90;;;;;;5069994;28;20079;-67
2023/10/06 07:25:39;;;;;;;13.63;6.10;;;14.40;99.90;;;;;;5058641;28;20102;-68
2023/10/06 07:28:07;;;;;;;18.00;6.63;;;14.40;99.90;;;;;;5065025;28;20090;-68
2023/10/06 07:30:34;;;;;;;15.70;7.07;;;14.40;99.90;;;;;;5057394;28;20427;-67
2023/10/06 07:33:00;;;;;;;15.65;5.70;;;14.40;99.90;;;;;;5071000;28;20036;-67
2023/10/06 07:35:45;;;;;;;18.02;6.90;;;14.40;99.90;;;;;;5067785;28;20126;-67
2023/10/06 07:38:11;;;;;;;17.42;6.28;;;14.40;99.90;;;;;;5068432;28;20181;-67
2023/10/06 07:40:38;;;;;;;19.00;6.07;;;14.50;99.90;;;;;;5065177;28;20562;-67
2023/10/06 07:43:05;;;;;;;15.02;5.78;;;14.50;99.90;;;;;;5061915;28;20094;-67
2023/10/06 07:45:31;;;;;;;15.43;6.32;;;14.50;99.90;;;;;;5052514;28;20045;-67
2023/10/06 07:47:58;;;;;;;16.15;6.53;;;14.50;99.90;;;;;;5067497;28;20052;-67
2023/10/06 07:50:26;;;;;;;12.60;6.35;;;14.50;99.90;;;;;;5066609;28;20032;-67
2023/10/06 07:52:52;;;;;;;13.23;6.22;;;14.60;99.90;;;;;;5065606;28;20484;-67
2023/10/06 07:55:21;;;;;;;17.08;5.97;;;14.70;99.90;;;;;;5065259;28;20044;-68
2023/10/06 07:57:47;;;;;;;18.23;6.78;;;14.70;99.90;;;;;;5059926;28;20143;-67
2023/10/06 08:00:32;;;;;;;13.18;6.57;;;14.70;99.90;;;;;;5069912;28;20510;-67
2023/10/06 08:02:59;;;;;;;15.95;6.28;;;14.70;99.90;;;;;;5064605;28;20048;-67
2023/10/06 08:05:25;;;;;;;15.23;6.28;;;14.70;99.90;;;;;;5066477;28;20044;-68
2023/10/06 08:07:52;;;;;;;18.40;6.75;;;14.80;99.90;;;;;;5070083;28;20037;-68
2023/10/06 08:10:18;;;;;;;13.30;6.40;;;14.80;99.90;;;;;;5070550;28;20299;-67
2023/10/06 08:12:46;;;;;;;16.05;6.20;;;14.80;99.90;;;;;;5071473;28;20123;-68
2023/10/06 08:15:21;;;;;;;17.48;6.30;;;14.80;99.90;;;;;;5062144;28;20221;-67
2023/10/06 08:17:53;;;;;;;18.77;6.65;;;14.80;99.90;;;;;;5067286;28;20090;-67
2023/10/06 08:20:20;;;;;;;15.98;6.45;;;14.90;99.90;;;;;;5063988;28;20552;-68
2023/10/06 08:22:47;;;;;;;12.35;6.32;;;14.90;99.90;;;;;;5063144;28;20066;-68
2023/10/06 08:25:13;;;;;;;15.63;6.38;;;14.90;99.90;;;;;;5067845;28;20460;-68
2023/10/06 08:27:41;;;;;;;14.60;6.20;;;14.90;99.90;;;;;;5065316;28;20059;-68
2023/10/06 08:30:18;;;;;;;14.82;6.35;;;14.90;99.90;;;;;;5071627;28;20479;-68
2023/10/06 08:32:45;;;;;;;16.00;6.85;;;14.90;99.90;;;;;;5064187;28;20036;-68
2023/10/06 08:35:13;;;;;;;14.50;6.55;;;15.00;99.90;;;;;;5069826;28;20046;-68
2023/10/06 08:37:56;;;;;;;20.40;7.15;;;15.00;99.90;;;;;;5061881;28;20111;-67
2023/10/06 08:40:22;;;;;;;15.23;6.85;;;15.00;99.90;;;;;;5056376;28;20186;-67
2023/10/06 08:42:56;;;;;;;15.20;6.97;;;15.00;99.90;;;;;;5069775;28;20043;-68
2023/10/06 08:45:24;;;;;;;14.25;6.68;;;15.00;99.90;;;;;;5069109;28;20048;-68
2023/10/06 08:47:58;;;;;;;17.83;6.75;;;15.10;99.90;;;;;;5055756;28;20044;-68
2023/10/06 08:50:27;;;;;;;17.65;6.97;;;15.10;99.90;;;;;;5066560;28;20062;-67
2023/10/06 08:52:54;;;;;;;16.02;6.90;;;15.10;99.90;;;;;;5065154;28;20033;-68
2023/10/06 08:55:21;;;;;;;18.52;7.22;;;15.20;99.90;;;;;;5058033;28;20036;-68
2023/10/06 08:57:48;;;;;;;13.65;6.82;;;15.20;99.90;;;;;;5053843;28;20112;-67
2023/10/06 09:00:18;;;;;;;14.65;7.30;;;15.20;99.90;;;;;;5066257;28;20530;-67
2023/10/06 09:02:48;;;;;;;19.83;6.93;;;15.20;99.90;;;;;;5064207;28;20123;-67
2023/10/06 09:05:14;;;;;;;15.18;6.70;;;15.20;99.90;;;;;;5066151;28;20391;-68
2023/10/06 09:08:09;;;;;;;18.48;7.47;;;15.20;99.90;;;;;;5066829;28;20035;-68
2023/10/06 09:10:43;;;;;;;15.65;6.63;;;15.20;99.90;;;;;;5055842;28;20076;-68
2023/10/06 09:13:16;;;;;;;16.42;6.90;;;15.20;99.90;;;;;;5060445;28;20044;-68
2023/10/06 09:15:43;;;;;;;22.15;7.50;;;15.30;99.90;;;;;;5060800;28;20033;-68
2023/10/06 09:18:28;;;;;;;14.65;6.80;;;15.30;99.90;;;;;;5069384;28;20502;-67
2023/10/06 09:20:57;;;;;;;14.10;6.63;;;15.30;99.90;;;;;;5059442;28;20052;-67
2023/10/06 09:23:34;;;;;;;16.10;7.00;;;15.40;99.90;;;;;;5060261;28;20513;-67
2023/10/06 09:26:01;;;;;;;13.48;6.80;;;15.40;99.90;;;;;;5075394;28;20043;-67
2023/10/06 09:28:28;;;;;;;17.17;6.82;;;15.40;99.90;;;;;;5068762;28;20037;-67
2023/10/06 09:31:02;;;;;;;12.48;6.50;;;15.40;99.90;;;;;;5072829;28;20395;-68
2023/10/06 09:33:36;;;;;;;19.70;7.10;;;15.40;99.90;;;;;;5065529;28;20119;-67
2023/10/06 09:36:07;;;;;;;15.63;6.63;;;15.50;99.90;;;;;;5053079;28;20052;-68
2023/10/06 09:38:37;;;;;;;18.73;6.43;;;15.50;99.90;;;;;;5062329;28;20134;-68
2023/10/06 09:41:05;;;;;;;16.20;6.25;;;15.60;99.90;;;;;;5066530;28;20043;-68
2023/10/06 09:43:38;;;;;;;16.30;6.68;;;15.70;99.90;;;;;;5073757;28;20063;-67
2023/10/06 09:46:06;;;;;;;12.02;5.72;;;15.80;99.90;;;;;;5072578;28;20049;-67
2023/10/06 09:48:38;;;;;;;15.57;6.50;;;15.90;99.90;;;;;;5059597;28;20044;-68
2023/10/06 09:51:08;;;;;;;14.95;5.53;;;16.00;99.90;;;;;;5071096;28;20131;-68
2023/10/06 09:53:38;;;;;;;11.52;5.50;;;16.10;99.90;;;;;;5076305;28;20497;-67
2023/10/06 09:56:12;;;;;;;16.05;5.40;;;16.20;99.90;;;;;;5060027;28;20033;-68
2023/10/06 09:58:47;;;;;;;14.18;5.50;;;16.30;99.90;;;;;;5065328;28;20048;-68
2023/10/06 10:01:14;;;;;;;15.20;5.72;;;16.50;99.90;;;;;;5068234;28;20060;-68
2023/10/06 10:03:41;;;;;;;13.55;5.40;;;16.70;99.90;;;;;;5068771;28;20032;-68
2023/10/06 10:06:07;;;;;;;12.80;5.10;;;16.90;99.90;;;;;;5058731;28;20059;-68
2023/10/06 10:08:35;;;;;;;11.30;5.00;;;17.00;99.90;;;;;;5068721;28;20041;-68
2023/10/06 10:11:15;;;;;;;14.38;5.35;;;17.10;99.90;;;;;;5064872;28;20395;-68
2023/10/06 10:14:02;;;;;;;11.50;4.45;;;17.10;99.90;;;;;;5064622;28;20039;-68
2023/10/06 10:16:56;;;;;;;18.50;5.13;;;17.20;99.90;;;;;;5065179;28;20033;-68
2023/10/06 10:19:26;;;;;;;10.43;4.63;;;17.20;99.90;;;;;;5065814;28;20083;-68
2023/10/06 10:21:54;;;;;;;17.25;5.22;;;17.30;99.90;;;;;;5063116;28;20469;-68
2023/10/06 10:24:21;;;;;;;15.73;5.30;;;17.30;99.90;;;;;;5061842;28;20111;-68
2023/10/06 10:26:50;;;;;;;14.70;4.78;;;17.30;99.90;;;;;;5070398;28;20059;-68
2023/10/06 10:29:15;;;;;;;9.90;4.60;;;17.30;99.90;;;;;;5070609;28;20051;-68
2023/10/06 10:32:23;;;;;;;12.98;4.60;;;17.50;99.90;;;;;;5056423;28;20391;-68
2023/10/06 10:35:14;;;;;;;12.80;4.88;;;17.50;99.90;;;;;;5009033;28;20571;-68
2023/10/06 10:37:58;;;;;;;12.13;4.43;;;17.60;99.90;;;;;;5010659;28;20041;-68
2023/10/06 10:40:26;;;;;;;11.32;4.93;;;17.70;99.90;;;;;;5052363;28;20040;-68
2023/10/06 10:43:06;;;;;;;9.93;4.43;;;17.80;99.90;;;;;;5067612;28;20052;-68
2023/10/06 10:45:43;;;;;;;10.05;4.65;;;18.10;99.90;;;;;;5065909;28;20449;-68
2023/10/06 10:48:17;;;;;;;10.70;4.68;;;18.30;99.90;;;;;;5063433;28;20044;-68
2023/10/06 10:51:03;;;;;;;12.40;4.85;;;18.40;99.90;;;;;;5063344;28;20128;-68
2023/10/06 10:53:32;;;;;;;12.90;4.30;;;18.30;99.90;;;;;;5070253;28;20051;-68
2023/10/06 10:55:58;;;;;;;13.88;4.80;;;18.20;99.90;;;;;;5056686;28;20052;-68
2023/10/06 10:58:45;;;;;;;12.73;4.97;;;18.10;99.90;;;;;;5072376;28;20495;-68
2023/10/06 11:01:27;;;;;;;14.25;4.90;;;17.80;99.90;;;;;;5067563;28;20127;-68
2023/10/06 11:04:18;;;;;;;10.77;4.60;;;17.70;99.90;;;;;;5071538;28;20155;-68
2023/10/06 11:06:46;;;;;;;11.90;4.60;;;17.50;99.90;;;;;;5064487;28;20494;-68
2023/10/06 11:09:25;;;;;;;14.07;4.30;;;17.40;99.90;;;;;;5067436;28;20463;-67
2023/10/06 11:11:55;;;;;;;15.20;5.00;;;17.40;99.90;;;;;;5065157;28;20040;-67
2023/10/06 11:14:22;;;;;;;10.50;5.00;;;17.40;99.90;;;;;;5063036;28;20407;-67
2023/10/06 11:16:47;;;;;;;15.52;5.43;;;17.30;99.90;;;;;;5061398;28;20514;-67
2023/10/06 11:19:15;;;;;;;15.32;5.22;;;17.20;99.90;;;;;;5071835;28;20075;-67
2023/10/06 11:21:44;;;;;;;14.65;5.00;;;17.20;99.90;;;;;;5074531;28;20111;-67
2023/10/06 11:24:10;;;;;;;14.90;5.00;;;17.20;99.90;;;;;;5062233;28;20051;-67
2023/10/06 11:26:36;;;;;;;11.40;4.78;;;17.30;99.90;;;;;;5070323;28;20070;-67
2023/10/06 11:29:03;;;;;;;13.00;4.63;;;17.30;99.90;;;;;;5068773;28;20041;-67
2023/10/06 11:31:29;;;;;;;15.82;4.78;;;17.30;99.90;;;;;;5058671;28;20037;-67
2023/10/06 11:33:56;;;;;;;15.70;5.35;;;17.40;99.90;;;;;;5065239;28;20029;-67
2023/10/06 11:36:22;;;;;;;12.85;4.63;;;17.50;99.90;;;;;;5064281;28;20171;-67
2023/10/06 11:38:48;;;;;;;14.45;4.90;;;17.50;99.90;;;;;;5064164;28;20040;-67
2023/10/06 11:41:23;;;;;;;12.13;5.10;;;17.60;99.90;;;;;;5063513;28;20040;-67
2023/10/06 11:43:53;;;;;;;13.50;4.60;;;17.60;99.90;;;;;;5061555;28;20115;-67
2023/10/06 11:46:19;;;;;;;12.95;4.82;;;17.60;99.90;;;;;;5066229;28;20048;-67
2023/10/06 11:48:45;;;;;;;10.02;4.47;;;17.60;99.90;;;;;;5070034;28;20044;-67
2023/10/06 11:51:12;;;;;;;11.95;5.40;;;17.60;99.90;;;;;;5071675;28;20411;-67
2023/10/06 11:53:40;;;;;;;13.07;5.03;;;17.60;99.90;;;;;;5056725;28;20506;-68
2023/10/06 11:56:13;;;;;;;15.90;4.63;;;17.50;99.90;;;;;;5053835;28;20036;-67
2023/10/06 11:58:40;;;;;;;15.18;5.15;;;17.50;99.90;;;;;;5061554;28;20072;-67
2023/10/06 12:01:48;;;;;;;14.35;4.38;;;17.60;99.90;;;;;;5062521;28;20044;-67
2023/10/06 12:04:31;;;;;;;16.15;5.40;;;17.70;99.90;;;;;;5061861;28;20055;-67
2023/10/06 12:06:58;;;;;;;18.45;5.03;;;17.70;99.90;;;;;;5057260;28;20055;-67
2023/10/06 12:09:34;;;;;;;12.75;4.38;;;17.80;99.90;;;;;;5055263;28;20048;-67
2023/10/06 12:12:01;;;;;;;12.60;5.05;;;18.00;99.90;;;;;;5064050;28;20037;-67
2023/10/06 12:14:27;;;;;;;12.90;5.22;;;18.10;99.90;;;;;;5066093;28;20064;-67
2023/10/06 12:16:54;;;;;;;13.77;4.63;;;18.30;99.90;;;;;;5062455;28;20522;-67
2023/10/06 12:19:22;;;;;;;18.77;6.18;;;18.30;99.90;;;;;;5059505;28;20115;-67
2023/10/06 12:21:47;;;;;;;16.00;5.10;;;18.40;99.90;;;;;;5057125;28;20093;-67
2023/10/06 12:24:13;;;;;;;9.07;4.60;;;18.40;99.90;;;;;;5063571;28;20107;-67
2023/10/06 12:26:40;;;;;;;14.75;4.88;;;18.50;99.90;;;;;;5057777;28;20036;-67
2023/10/06 12:29:06;;;;;;;10.38;4.20;;;18.50;99.90;;;;;;5061494;28;20047;-67
2023/10/06 12:31:32;;;;;;;13.23;4.10;;;18.50;99.90;;;;;;5060943;28;20025;-67
2023/10/06 12:34:03;;;;;;;10.40;4.68;;;18.60;99.90;;;;;;5070104;28;20507;-67
2023/10/06 12:36:31;;;;;;;10.73;4.10;;;18.60;99.90;;;;;;5060533;28;20068;-67
2023/10/06 12:38:59;;;;;;;14.45;4.60;;;18.70;99.90;;;;;;5056703;28;20055;-67
2023/10/06 12:41:25;;;;;;;19.90;5.05;;;18.80;99.90;;;;;;5038890;28;20049;-67
2023/10/06 12:43:50;;;;;;;10.05;4.75;;;18.90;99.90;;;;;;5065859;28;20106;-67
2023/10/06 12:46:17;;;;;;;12.73;4.35;;;18.90;99.90;;;;;;5068723;28;20068;-67
2023/10/06 12:48:45;;;;;;;14.45;4.97;;;19.00;99.90;;;;;;5053710;28;20116;-67
2023/10/06 12:51:11;;;;;;;12.18;4.47;;;19.00;99.90;;;;;;5065034;28;20048;-67
2023/10/06 12:53:38;;;;;;;12.98;4.53;;;19.00;99.90;;;;;;5066442;28;20399;-67
2023/10/06 12:56:04;;;;;;;13.55;4.55;;;19.00;99.90;;;;;;5070373;28;20132;-67
2023/10/06 12:58:30;;;;;;;14.02;4.60;;;18.90;99.90;;;;;;5070087;28;20131;-67
2023/10/06 13:00:55;;;;;;;10.32;4.03;;;18.90;99.90;;;;;;5061267;28;20040;-67
2023/10/06 13:03:21;;;;;;;10.57;4.00;;;18.90;99.90;;;;;;5063895;28;20277;-67